Millennium — 9HJF9 — position and weather

sailwx.info

Track history (hours):
 
Tides and Currents Weather Stations Pressure Air Temp Water Temp Dewpoint Dewpoint Depression Visibility Wind Speed Wind Dir Waves Ship Positions

Millennium

Last reported at 2017-Jul-22 18:30 UTC. Time now 2017-Jul-22 18:31 UTC.
Position N 51°38' W 128°53'.

Length 294 m; draft 8.3 m.

Type: Passenger vessel. MMSI: 249055000.

Date/timePositionNaut miles runAvg speedWind from/ knotsBaromVisibWave heightAir tempDewpointWater temp
2017-Jul-22 18:30N 51°38' W 128°53'713.1
2017-Jul-22 18:01N 51°33' W 128°46'713.3
2017-Jul-22 17:30N 51°28' W 128°39'713.4
2017-Jul-22 17:00N 51°23' W 128°32'713.4
2017-Jul-22 16:30N 51°19' W 128°24'713.3
2017-Jul-22 16:00N 51°14' W 128°16'713.5
2017-Jul-22 15:31N 51°09' W 128°09'1113.6
2017-Jul-22 14:40N 51°02' W 127°55'913.6
2017-Jul-22 14:01N 50°57' W 127°43'714.0
2017-Jul-22 13:31N 50°53' W 127°35'612.3
2017-Jul-22 13:00N 50°50' W 127°26'713.4
2017-Jul-22 12:30N 50°47' W 127°16'713.5
2017-Jul-22 12:00N 50°44' W 127°06'5322.4
2017-Jul-22 12:00N 50°42' W 127°00'2 4.9 130 / 171021.0 11.0 9.0
2017-Jul-22 11:30N 50°42' W 126°56'713.3
2017-Jul-22 11:00N 50°38' W 126°48'712.5
2017-Jul-22 10:26N 50°32' W 126°41'4418.0
2017-Jul-22 08:00N 50°18' W 125°36'6 4.9 080 / 101019.0 13.7 11.0
2017-Jul-22 06:44N 50°20' W 125°27'311.3
2017-Jul-22 06:30N 50°18' W 125°25'713.5
2017-Jul-22 06:00N 50°12' W 125°22'612.0
2017-Jul-22 05:30N 50°06' W 125°18'714.3
2017-Jul-22 05:00N 50°00' W 125°13'917.2
2017-Jul-22 04:30N 49°54' W 125°03'917.7
2017-Jul-22 04:00N 49°48' W 124°53'918.1
2017-Jul-22 03:30N 49°42' W 124°43'1019.1
2017-Jul-22 03:00N 49°34' W 124°34'1019.0
2017-Jul-22 02:30N 49°27' W 124°24'1919.1
2017-Jul-22 01:30N 49°21' W 123°56'919.4
2017-Jul-22 01:00N 49°19' W 123°42'176.2
2017-Jul-22 01:00N 49°18' W 123°42'1020.0 150 / 51020.0 14.0 10.0
2017-Jul-22 00:30N 49°18' W 123°27'918.4
2017-Jul-22 00:01N 49°19' W 123°13'510.0
2017-Jul-21 23:31N 49°18' W 123°06'1 1.4
2017-Jul-21 23:00N 49°17' W 123°07'0 0.0
2017-Jul-21 22:30N 49°17' W 123°07'0 0.0
2017-Jul-21 22:00N 49°17' W 123°07'0 0.0
2017-Jul-21 21:30N 49°17' W 123°07'0 0.0
2017-Jul-21 21:00N 49°17' W 123°07'0 0.0
2017-Jul-21 20:29N 49°17' W 123°07'510.7
2017-Jul-21 20:00N 49°12' W 123°06'51006.0 1021.0 21.0 15.0
2017-Jul-21 19:59N 49°17' W 123°07'0 0.0
2017-Jul-21 19:30N 49°17' W 123°07'0 0.0
2017-Jul-21 19:00N 49°17' W 123°07'0 0.0
2017-Jul-21 18:30N 49°17' W 123°07'0 0.0
2017-Jul-21 18:00N 49°17' W 123°07'0 0.0
2017-Jul-21 17:30N 49°17' W 123°07'0 0.0
2017-Jul-21 17:00N 49°17' W 123°07'0 0.0
2017-Jul-21 16:30N 49°17' W 123°07'0 0.0
2017-Jul-21 16:00N 49°17' W 123°07'0 0.0
2017-Jul-21 15:30N 49°17' W 123°07'0 0.0
2017-Jul-21 15:00N 49°17' W 123°07'0 0.0
2017-Jul-21 14:30N 49°17' W 123°07'0 0.0
2017-Jul-21 14:00N 49°17' W 123°07'1 1.4
2017-Jul-21 13:31N 49°18' W 123°06'611.0
2017-Jul-21 13:00N 49°19' W 123°15'713.2
2017-Jul-21 12:30N 49°18' W 123°25'713.4
2017-Jul-21 12:00N 49°19' W 123°35'5288.6
2017-Jul-21 12:00N 49°18' W 123°42'3 5.3 130 / 161019.0 12.0 11.0
2017-Jul-21 11:30N 49°19' W 123°45'713.2
2017-Jul-21 11:00N 49°21' W 123°55'1513.2
2017-Jul-21 09:54N 49°25' W 124°17'513.2
2017-Jul-21 09:30N 49°27' W 124°24'713.9
2017-Jul-21 09:00N 49°31' W 124°32'714.3
2017-Jul-21 08:30N 49°37' W 124°39'714.6
2017-Jul-21 08:00N 49°43' W 124°47'3207.7
2017-Jul-21 08:00N 49°42' W 124°42'1020.6 290 / 71019.0 17.7 20.0
2017-Jul-21 07:30N 49°48' W 124°54'816.7
2017-Jul-21 07:00N 49°54' W 125°04'816.4
2017-Jul-21 06:30N 49°60' W 125°12'714.1
2017-Jul-21 06:01N 50°06' W 125°18'510.4
2017-Jul-21 05:30N 50°10' W 125°22'714.3
2017-Jul-21 05:00N 50°17' W 125°25'6513.1
2017-Jul-21 00:00N 50°42' W 127°00'4716.9 230 / 41018.0 12.0 10.0
2017-Jul-20 21:15N 51°06' W 128°03'416.2
2017-Jul-20 21:00N 51°09' W 128°08'4249.9
2017-Jul-20 21:00N 51°06' W 128°12'917.7 230 / 101019.0 16.3 16.0
2017-Jul-20 20:31N 51°14' W 128°18'816.9
2017-Jul-20 20:01N 51°19' W 128°28'917.0
2017-Jul-20 19:30N 51°24' W 128°39'816.8
2017-Jul-20 19:01N 51°28' W 128°51'816.7
2017-Jul-20 18:30N 51°31' W 129°03'816.7
2017-Jul-20 18:00N 51°35' W 129°16'5343.1
2017-Jul-20 18:00N 51°30' W 129°12'1326.6 210 / 91018.0 0.3 15.0 16.0
2017-Jul-20 17:30N 51°38' W 129°28'5716.2
2017-Jul-20 14:00N 52°30' W 130°06'7117.7 230 / 111016.0 12.0 10.0
2017-Jul-20 10:00N 53°36' W 130°48'5614.0 130 / 141016.0 13.4 14.0
2017-Jul-20 06:00N 54°30' W 131°12'50 5.5 190 / 101017.0 0.3 13.0 15.0
2017-Jul-19 21:00N 55°18' W 131°36'49 6.2 110 / 81017.0 18.4 13.0
2017-Jul-19 13:00N 55°54' W 132°36'4411.0 180 / 51019.0 11.0 9.0
2017-Jul-19 09:00N 56°00' W 133°54'11814.7 240 / 121017.0 12.1 10.0
2017-Jul-19 01:00N 57°54' W 134°48'23 4.5 340 / 111019.0 11.0 9.0
2017-Jul-18 20:00N 58°06' W 135°24'3 0.5 040 / 71019.0 13.2 10.0
2017-Jul-18 13:23N 58°09' W 135°22'34 7.7
2017-Jul-18 09:00N 58°42' W 135°06'3110.2 140 / 91021.0 13.4 13.0
2017-Jul-18 06:00N 59°12' W 135°18'12 2.4 190 / 81020.0 0.3 14.0 13.0
2017-Jul-18 01:00N 59°24' W 135°18'0 0.0 220 / 241021.0 17.0 11.0
2017-Jul-17 21:00N 59°24' W 135°18'49 4.1 240 / 151020.0 16.8 11.0
2017-Jul-17 09:00N 58°36' W 135°00'2914.3 170 / 121023.0 12.6 13.0
2017-Jul-17 07:00N 58°12' W 134°30'7 0.7 060 / 61023.0 0.1 11.0 12.0
2017-Jul-16 21:00N 58°18' W 134°24'7 1.1 1020.0 13.1 11.0
2017-Jul-16 15:00N 58°12' W 134°30'32 8.9 110 / 141015.0 12.0 10.0
2017-Jul-16 11:24N 58°13' W 135°31'615.4
2017-Jul-16 11:00N 58°16' W 135°41'815.5
2017-Jul-16 10:30N 58°19' W 135°55'3120.4
2017-Jul-16 09:00N 58°06' W 136°48'10414.8 280 / 161016.0 12.6 11.0
2017-Jul-16 02:00N 59°06' W 139°30'4214.0 260 / 61018.0 12.0 10.0
2017-Jul-15 23:00N 59°48' W 139°36'11113.8 020 / 11017.0 11.0 11.0
2017-Jul-15 15:00N 59°30' W 143°12'12220.3 230 / 71016.0 12.0 10.0
2017-Jul-15 09:00N 59°36' W 147°12'4019.9 130 / 121020.0 12.7 14.0
2017-Jul-15 07:00N 59°42' W 148°30'36 3.6 090 / 151020.0 0.3 12.0 15.0
2017-Jul-14 21:00N 60°06' W 149°24'52 4.3 1020.0 16.8 12.0
2017-Jul-14 09:00N 59°36' W 148°00'1515.2 080 / 241018.0 13.7 13.0
2017-Jul-14 08:00N 59°36' W 147°30'14918.6 050 / 341018.0 0.3 14.0 14.0
2017-Jul-14 00:00N 59°30' W 142°36'8216.5 160 / 11016.0 15.6 14.0
2017-Jul-13 19:00N 59°36' W 139°54'6 1.2 360 / 51016.0 0.3 15.0 13.0
2017-Jul-13 14:00N 59°30' W 139°54'8421.0 130 / 201015.0 12.0 10.0
2017-Jul-13 10:00N 58°30' W 138°00'5714.6 160 / 131016.0 13.9 14.0
2017-Jul-13 06:04N 58°19' W 136°13'120.2
2017-Jul-13 06:00N 58°19' W 136°11'1112.2
2017-Jul-13 06:00N 58°18' W 136°12'1020.7 270 / 141015.0 0.3 12.0 12.0
2017-Jul-13 05:30N 58°19' W 135°53'1020.0
2017-Jul-13 05:00N 58°16' W 135°34'1120.3
2017-Jul-13 04:29N 58°12' W 135°16'3614.6
2017-Jul-13 02:00N 58°48' W 135°06'37 9.1 350 / 191016.0 12.0 11.0
2017-Jul-12 22:00N 59°24' W 135°18'   1016.0 21.5 10.0
Track history (hours):
 
Tides and Currents Weather Stations Pressure Air Temp Water Temp Dewpoint Dewpoint Depression Visibility Wind Speed Wind Dir Waves Ship Positions

Millennium

Last reported at 2017-Jul-22 18:30 UTC. Time now 2017-Jul-22 18:31 UTC.
Position N 51°38' W 128°53'.

Length 294 m; draft 8.3 m.

Type: Passenger vessel. MMSI: 249055000.

Date/timePositionNaut miles runAvg speedWind from/ knotsBaromVisibWave heightAir tempDewpointWater temp
2017-Jul-22 18:30N 51°38' W 128°53'713.1
2017-Jul-22 18:01N 51°33' W 128°46'713.3
2017-Jul-22 17:30N 51°28' W 128°39'713.4
2017-Jul-22 17:00N 51°23' W 128°32'713.4
2017-Jul-22 16:30N 51°19' W 128°24'713.3
2017-Jul-22 16:00N 51°14' W 128°16'713.5
2017-Jul-22 15:31N 51°09' W 128°09'1113.6
2017-Jul-22 14:40N 51°02' W 127°55'913.6
2017-Jul-22 14:01N 50°57' W 127°43'714.0
2017-Jul-22 13:31N 50°53' W 127°35'612.3
2017-Jul-22 13:00N 50°50' W 127°26'713.4
2017-Jul-22 12:30N 50°47' W 127°16'713.5
2017-Jul-22 12:00N 50°44' W 127°06'5322.4
2017-Jul-22 12:00N 50°42' W 127°00'2 4.9 130 / 171021.0 11.0 9.0
2017-Jul-22 11:30N 50°42' W 126°56'713.3
2017-Jul-22 11:00N 50°38' W 126°48'712.5
2017-Jul-22 10:26N 50°32' W 126°41'4418.0
2017-Jul-22 08:00N 50°18' W 125°36'6 4.9 080 / 101019.0 13.7 11.0
2017-Jul-22 06:44N 50°20' W 125°27'311.3
2017-Jul-22 06:30N 50°18' W 125°25'713.5
2017-Jul-22 06:00N 50°12' W 125°22'612.0
2017-Jul-22 05:30N 50°06' W 125°18'714.3
2017-Jul-22 05:00N 50°00' W 125°13'917.2
2017-Jul-22 04:30N 49°54' W 125°03'917.7
2017-Jul-22 04:00N 49°48' W 124°53'918.1
2017-Jul-22 03:30N 49°42' W 124°43'1019.1
2017-Jul-22 03:00N 49°34' W 124°34'1019.0
2017-Jul-22 02:30N 49°27' W 124°24'1919.1
2017-Jul-22 01:30N 49°21' W 123°56'919.4
2017-Jul-22 01:00N 49°19' W 123°42'176.2
2017-Jul-22 01:00N 49°18' W 123°42'1020.0 150 / 51020.0 14.0 10.0
2017-Jul-22 00:30N 49°18' W 123°27'918.4
2017-Jul-22 00:01N 49°19' W 123°13'510.0
2017-Jul-21 23:31N 49°18' W 123°06'1 1.4
2017-Jul-21 23:00N 49°17' W 123°07'0 0.0
2017-Jul-21 22:30N 49°17' W 123°07'0 0.0
2017-Jul-21 22:00N 49°17' W 123°07'0 0.0
2017-Jul-21 21:30N 49°17' W 123°07'0 0.0
2017-Jul-21 21:00N 49°17' W 123°07'0 0.0
2017-Jul-21 20:29N 49°17' W 123°07'510.7
2017-Jul-21 20:00N 49°12' W 123°06'51006.0 1021.0 21.0 15.0
2017-Jul-21 19:59N 49°17' W 123°07'0 0.0
2017-Jul-21 19:30N 49°17' W 123°07'0 0.0
2017-Jul-21 19:00N 49°17' W 123°07'0 0.0
2017-Jul-21 18:30N 49°17' W 123°07'0 0.0
2017-Jul-21 18:00N 49°17' W 123°07'0 0.0
2017-Jul-21 17:30N 49°17' W 123°07'0 0.0
2017-Jul-21 17:00N 49°17' W 123°07'0 0.0
2017-Jul-21 16:30N 49°17' W 123°07'0 0.0
2017-Jul-21 16:00N 49°17' W 123°07'0 0.0
2017-Jul-21 15:30N 49°17' W 123°07'0 0.0
2017-Jul-21 15:00N 49°17' W 123°07'0 0.0
2017-Jul-21 14:30N 49°17' W 123°07'0 0.0
2017-Jul-21 14:00N 49°17' W 123°07'1 1.4
2017-Jul-21 13:31N 49°18' W 123°06'611.0
2017-Jul-21 13:00N 49°19' W 123°15'713.2
2017-Jul-21 12:30N 49°18' W 123°25'713.4
2017-Jul-21 12:00N 49°19' W 123°35'5288.6
2017-Jul-21 12:00N 49°18' W 123°42'3 5.3 130 / 161019.0 12.0 11.0
2017-Jul-21 11:30N 49°19' W 123°45'713.2
2017-Jul-21 11:00N 49°21' W 123°55'1513.2
2017-Jul-21 09:54N 49°25' W 124°17'513.2
2017-Jul-21 09:30N 49°27' W 124°24'713.9
2017-Jul-21 09:00N 49°31' W 124°32'714.3
2017-Jul-21 08:30N 49°37' W 124°39'714.6
2017-Jul-21 08:00N 49°43' W 124°47'3207.7
2017-Jul-21 08:00N 49°42' W 124°42'1020.6 290 / 71019.0 17.7 20.0
2017-Jul-21 07:30N 49°48' W 124°54'816.7
2017-Jul-21 07:00N 49°54' W 125°04'816.4
2017-Jul-21 06:30N 49°60' W 125°12'714.1
2017-Jul-21 06:01N 50°06' W 125°18'510.4
2017-Jul-21 05:30N 50°10' W 125°22'714.3
2017-Jul-21 05:00N 50°17' W 125°25'6513.1
2017-Jul-21 00:00N 50°42' W 127°00'4716.9 230 / 41018.0 12.0 10.0
2017-Jul-20 21:15N 51°06' W 128°03'416.2
2017-Jul-20 21:00N 51°09' W 128°08'4249.9
2017-Jul-20 21:00N 51°06' W 128°12'917.7 230 / 101019.0 16.3 16.0
2017-Jul-20 20:31N 51°14' W 128°18'816.9
2017-Jul-20 20:01N 51°19' W 128°28'917.0
2017-Jul-20 19:30N 51°24' W 128°39'816.8
2017-Jul-20 19:01N 51°28' W 128°51'816.7
2017-Jul-20 18:30N 51°31' W 129°03'816.7
2017-Jul-20 18:00N 51°35' W 129°16'5343.1
2017-Jul-20 18:00N 51°30' W 129°12'1326.6 210 / 91018.0 0.3 15.0 16.0
2017-Jul-20 17:30N 51°38' W 129°28'5716.2
2017-Jul-20 14:00N 52°30' W 130°06'7117.7 230 / 111016.0 12.0 10.0
2017-Jul-20 10:00N 53°36' W 130°48'5614.0 130 / 141016.0 13.4 14.0
2017-Jul-20 06:00N 54°30' W 131°12'50 5.5 190 / 101017.0 0.3 13.0 15.0
2017-Jul-19 21:00N 55°18' W 131°36'49 6.2 110 / 81017.0 18.4 13.0
2017-Jul-19 13:00N 55°54' W 132°36'4411.0 180 / 51019.0 11.0 9.0
2017-Jul-19 09:00N 56°00' W 133°54'11814.7 240 / 121017.0 12.1 10.0
2017-Jul-19 01:00N 57°54' W 134°48'23 4.5 340 / 111019.0 11.0 9.0
2017-Jul-18 20:00N 58°06' W 135°24'3 0.5 040 / 71019.0 13.2 10.0
2017-Jul-18 13:23N 58°09' W 135°22'34 7.7
2017-Jul-18 09:00N 58°42' W 135°06'3110.2 140 / 91021.0 13.4 13.0
2017-Jul-18 06:00N 59°12' W 135°18'12 2.4 190 / 81020.0 0.3 14.0 13.0
2017-Jul-18 01:00N 59°24' W 135°18'0 0.0 220 / 241021.0 17.0 11.0
2017-Jul-17 21:00N 59°24' W 135°18'49 4.1 240 / 151020.0 16.8 11.0
2017-Jul-17 09:00N 58°36' W 135°00'2914.3 170 / 121023.0 12.6 13.0
2017-Jul-17 07:00N 58°12' W 134°30'7 0.7 060 / 61023.0 0.1 11.0 12.0
2017-Jul-16 21:00N 58°18' W 134°24'7 1.1 1020.0 13.1 11.0
2017-Jul-16 15:00N 58°12' W 134°30'32 8.9 110 / 141015.0 12.0 10.0
2017-Jul-16 11:24N 58°13' W 135°31'615.4
2017-Jul-16 11:00N 58°16' W 135°41'815.5
2017-Jul-16 10:30N 58°19' W 135°55'3120.4
2017-Jul-16 09:00N 58°06' W 136°48'10414.8 280 / 161016.0 12.6 11.0
2017-Jul-16 02:00N 59°06' W 139°30'4214.0 260 / 61018.0 12.0 10.0
2017-Jul-15 23:00N 59°48' W 139°36'11113.8 020 / 11017.0 11.0 11.0
2017-Jul-15 15:00N 59°30' W 143°12'12220.3 230 / 71016.0 12.0 10.0
2017-Jul-15 09:00N 59°36' W 147°12'4019.9 130 / 121020.0 12.7 14.0
2017-Jul-15 07:00N 59°42' W 148°30'36 3.6 090 / 151020.0 0.3 12.0 15.0
2017-Jul-14 21:00N 60°06' W 149°24'52 4.3 1020.0 16.8 12.0
2017-Jul-14 09:00N 59°36' W 148°00'1515.2 080 / 241018.0 13.7 13.0
2017-Jul-14 08:00N 59°36' W 147°30'14918.6 050 / 341018.0 0.3 14.0 14.0
2017-Jul-14 00:00N 59°30' W 142°36'8216.5 160 / 11016.0 15.6 14.0
2017-Jul-13 19:00N 59°36' W 139°54'6 1.2 360 / 51016.0 0.3 15.0 13.0
2017-Jul-13 14:00N 59°30' W 139°54'8421.0 130 / 201015.0 12.0 10.0
2017-Jul-13 10:00N 58°30' W 138°00'5714.6 160 / 131016.0 13.9 14.0
2017-Jul-13 06:04N 58°19' W 136°13'120.2
2017-Jul-13 06:00N 58°19' W 136°11'1112.2
2017-Jul-13 06:00N 58°18' W 136°12'1020.7 270 / 141015.0 0.3 12.0 12.0
2017-Jul-13 05:30N 58°19' W 135°53'1020.0
2017-Jul-13 05:00N 58°16' W 135°34'1120.3
2017-Jul-13 04:29N 58°12' W 135°16'3614.6
2017-Jul-13 02:00N 58°48' W 135°06'37 9.1 350 / 191016.0 12.0 11.0
2017-Jul-12 22:00N 59°24' W 135°18'   1016.0 21.5 10.0

Dump ship's entire track history